createdAt,value
2018-05-05T00:00:46.728Z,1016.46
2018-05-05T00:01:46.718Z,1016.44
2018-05-05T00:02:46.696Z,1016.47
2018-05-05T00:03:46.683Z,1016.46
2018-05-05T00:04:46.666Z,1016.52
2018-05-05T00:05:46.654Z,1016.52
2018-05-05T00:06:46.640Z,1016.51
2018-05-05T00:07:46.621Z,1016.53
2018-05-05T00:08:46.606Z,1016.55
2018-05-05T00:09:46.590Z,1016.55
2018-05-05T00:10:46.576Z,1016.53
2018-05-05T00:11:46.562Z,1016.56
2018-05-05T00:12:46.545Z,1016.52
2018-05-05T00:13:46.529Z,1016.52
2018-05-05T00:14:46.514Z,1016.5
2018-05-05T00:15:46.501Z,1016.5
2018-05-05T00:16:46.483Z,1016.49
2018-05-05T00:17:46.469Z,1016.52
2018-05-05T00:18:46.453Z,1016.53
2018-05-05T00:19:46.437Z,1016.51
2018-05-05T00:20:46.422Z,1016.52
2018-05-05T00:21:46.409Z,1016.51
2018-05-05T00:22:46.393Z,1016.51
2018-05-05T00:23:46.376Z,1016.51
2018-05-05T00:24:46.361Z,1016.54
2018-05-05T00:25:46.345Z,1016.53
2018-05-05T00:26:46.335Z,1016.54
2018-05-05T00:27:46.317Z,1016.55
2018-05-05T00:28:46.300Z,1016.53
2018-05-05T00:29:46.285Z,1016.51
2018-05-05T00:30:46.272Z,1016.52
2018-05-05T00:31:46.257Z,1016.49
2018-05-05T00:32:46.241Z,1016.47
2018-05-05T00:33:46.222Z,1016.44
2018-05-05T00:34:46.208Z,1016.45
2018-05-05T00:35:46.194Z,1016.46
2018-05-05T00:36:46.177Z,1016.44
2018-05-05T00:37:46.168Z,1016.47
2018-05-05T00:38:46.149Z,1016.45
2018-05-05T00:39:46.132Z,1016.43
2018-05-05T00:40:46.120Z,1016.45
2018-05-05T00:41:46.101Z,1016.49
2018-05-05T00:42:46.087Z,1016.49
2018-05-05T00:43:46.071Z,1016.53
2018-05-05T00:44:46.055Z,1016.5
2018-05-05T00:45:46.041Z,1016.5
2018-05-05T00:46:46.028Z,1016.53
2018-05-05T00:47:46.013Z,1016.54
2018-05-05T00:48:45.994Z,1016.53
2018-05-05T00:49:45.978Z,1016.57
2018-05-05T00:50:45.964Z,1016.57
2018-05-05T00:51:45.950Z,1016.59
2018-05-05T00:52:45.930Z,1016.58
2018-05-05T00:53:45.915Z,1016.58
2018-05-05T00:54:45.899Z,1016.59
2018-05-05T00:55:45.884Z,1016.62
2018-05-05T00:56:45.870Z,1016.58
2018-05-05T00:57:45.854Z,1016.58
2018-05-05T00:58:45.839Z,1016.65
2018-05-05T00:59:45.823Z,1016.61
2018-05-05T01:00:45.809Z,1016.65
2018-05-05T01:01:45.792Z,1016.59
2018-05-05T01:02:45.779Z,1016.65
2018-05-05T01:03:45.761Z,1016.6
2018-05-05T01:04:45.746Z,1016.57
2018-05-05T01:05:45.734Z,1016.54
2018-05-05T01:06:45.714Z,1016.57
2018-05-05T01:07:45.700Z,1016.56
2018-05-05T01:08:45.684Z,1016.57
2018-05-05T01:09:45.670Z,1016.56
2018-05-05T01:10:45.655Z,1016.54
2018-05-05T01:11:45.637Z,1016.56
2018-05-05T01:12:45.624Z,1016.56
2018-05-05T01:13:45.604Z,1016.6
2018-05-05T01:14:45.590Z,1016.62
2018-05-05T01:15:45.577Z,1016.61
2018-05-05T01:16:45.564Z,1016.65
2018-05-05T01:17:45.541Z,1016.63
2018-05-05T01:18:45.528Z,1016.63
2018-05-05T01:19:45.512Z,1016.63
2018-05-05T01:20:45.494Z,1016.66
2018-05-05T01:21:45.480Z,1016.66
2018-05-05T01:22:45.464Z,1016.67
2018-05-05T01:23:45.450Z,1016.7
2018-05-05T01:24:45.432Z,1016.69
2018-05-05T01:25:45.416Z,1016.72
2018-05-05T01:26:45.402Z,1016.73
2018-05-05T01:27:45.384Z,1016.77
2018-05-05T01:28:45.371Z,1016.76
2018-05-05T01:29:45.353Z,1016.81
2018-05-05T01:30:45.339Z,1016.81
2018-05-05T01:31:45.321Z,1016.8
2018-05-05T01:32:45.305Z,1016.8
2018-05-05T01:33:45.292Z,1016.81
2018-05-05T01:34:45.275Z,1016.83
2018-05-05T01:35:45.258Z,1016.85
2018-05-05T01:36:45.243Z,1016.84
2018-05-05T01:37:45.226Z,1016.8
2018-05-05T01:38:45.209Z,1016.83
2018-05-05T01:39:45.197Z,1016.81
2018-05-05T01:40:45.177Z,1016.81
2018-05-05T01:41:45.163Z,1016.8
2018-05-05T01:42:45.149Z,1016.82
2018-05-05T01:43:45.130Z,1016.81
2018-05-05T01:44:45.117Z,1016.85
2018-05-05T01:45:45.099Z,1016.8
2018-05-05T01:46:45.083Z,1016.84
2018-05-05T01:47:45.068Z,1016.79
2018-05-05T01:48:45.051Z,1016.79
2018-05-05T01:49:45.033Z,1016.79
2018-05-05T01:50:45.018Z,1016.83
2018-05-05T01:51:45.004Z,1016.82
2018-05-05T01:52:45.022Z,1016.85
2018-05-05T01:53:44.969Z,1016.8
2018-05-05T01:54:44.955Z,1016.78
2018-05-05T01:55:44.940Z,1016.75
2018-05-05T01:56:44.924Z,1016.73
2018-05-05T01:57:44.907Z,1016.76
2018-05-05T01:58:45.091Z,1016.72
2018-05-05T01:59:44.947Z,1016.75
2018-05-05T02:00:44.856Z,1016.69
2018-05-05T02:01:44.842Z,1016.72
2018-05-05T02:02:44.825Z,1016.73
2018-05-05T02:03:44.810Z,1016.72
2018-05-05T02:04:44.793Z,1016.75
2018-05-05T02:05:44.782Z,1016.76
2018-05-05T02:06:44.764Z,1016.75
2018-05-05T02:07:44.744Z,1016.79
2018-05-05T02:08:44.730Z,1016.74
2018-05-05T02:09:44.714Z,1016.75
2018-05-05T02:10:44.697Z,1016.74
2018-05-05T02:11:44.680Z,1016.71
2018-05-05T02:12:44.662Z,1016.74
2018-05-05T02:13:44.647Z,1016.73
2018-05-05T02:14:44.630Z,1016.71
2018-05-05T02:15:44.616Z,1016.7
2018-05-05T02:16:44.598Z,1016.72
2018-05-05T02:17:44.582Z,1016.7
2018-05-05T02:18:44.565Z,1016.66
2018-05-05T02:19:44.550Z,1016.67
2018-05-05T02:20:44.534Z,1016.65
2018-05-05T02:21:44.519Z,1016.66
2018-05-05T02:22:44.503Z,1016.68
2018-05-05T02:23:44.486Z,1016.68
2018-05-05T02:24:44.467Z,1016.63
2018-05-05T02:25:44.451Z,1016.63
2018-05-05T02:26:44.435Z,1016.65
2018-05-05T02:27:44.422Z,1016.62
2018-05-05T02:28:44.405Z,1016.62
2018-05-05T02:29:44.386Z,1016.65
2018-05-05T02:30:44.372Z,1016.74
2018-05-05T02:31:44.361Z,1016.68
2018-05-05T02:32:44.339Z,1016.7
2018-05-05T02:33:44.327Z,1016.67
2018-05-05T02:34:44.306Z,1016.67
2018-05-05T02:35:44.288Z,1016.65
2018-05-05T02:36:44.276Z,1016.7
2018-05-05T02:37:44.255Z,1016.67
2018-05-05T02:38:44.243Z,1016.66
2018-05-05T02:39:44.228Z,1016.65
2018-05-05T02:40:44.211Z,1016.68
2018-05-05T02:41:44.192Z,1016.69
2018-05-05T02:42:44.173Z,1016.67
2018-05-05T02:43:44.159Z,1016.7
2018-05-05T02:44:44.140Z,1016.7
2018-05-05T02:45:44.124Z,1016.7
2018-05-05T02:46:44.109Z,1016.77
2018-05-05T02:47:44.094Z,1016.74
2018-05-05T02:48:44.077Z,1016.74
2018-05-05T02:49:44.059Z,1016.78
2018-05-05T02:50:44.041Z,1016.73
2018-05-05T02:51:44.024Z,1016.71
2018-05-05T02:52:44.008Z,1016.73
2018-05-05T02:53:43.998Z,1016.77
2018-05-05T02:54:43.977Z,1016.77
2018-05-05T02:55:43.960Z,1016.78
2018-05-05T02:56:43.940Z,1016.76
2018-05-05T02:57:43.928Z,1016.8
2018-05-05T02:58:43.907Z,1016.77
2018-05-05T02:59:43.892Z,1016.75
2018-05-05T03:00:43.875Z,1016.74
2018-05-05T03:01:43.865Z,1016.75
2018-05-05T03:02:43.840Z,1016.79
2018-05-05T03:03:43.826Z,1016.74
2018-05-05T03:04:43.809Z,1016.77
2018-05-05T03:05:43.792Z,1016.74
2018-05-05T03:06:43.777Z,1016.7
2018-05-05T03:07:43.756Z,1016.68
2018-05-05T03:08:43.743Z,1016.65
2018-05-05T03:09:43.728Z,1016.66
2018-05-05T03:10:43.706Z,1016.65
2018-05-05T03:11:43.695Z,1016.64
2018-05-05T03:12:43.675Z,1016.62
2018-05-05T03:13:43.657Z,1016.57
2018-05-05T03:14:43.640Z,1016.6
2018-05-05T03:15:43.633Z,1016.59
2018-05-05T03:16:43.607Z,1016.58
2018-05-05T03:17:43.590Z,1016.59
2018-05-05T03:18:43.575Z,1016.57
2018-05-05T03:19:43.558Z,1016.62
2018-05-05T03:20:43.538Z,1016.59
2018-05-05T03:21:43.526Z,1016.6
2018-05-05T03:22:43.510Z,1016.63
2018-05-05T03:23:43.493Z,1016.61
2018-05-05T03:24:43.475Z,1016.63
2018-05-05T03:25:43.454Z,1016.63
2018-05-05T03:26:43.438Z,1016.62
2018-05-05T03:27:43.425Z,1016.65
2018-05-05T03:28:43.407Z,1016.65
2018-05-05T03:29:43.387Z,1016.63
2018-05-05T03:30:43.370Z,1016.65
2018-05-05T03:31:43.417Z,1016.68
2018-05-05T03:32:43.335Z,1016.7
2018-05-05T03:33:43.323Z,1016.73
2018-05-05T03:34:43.303Z,1016.76
2018-05-05T03:35:43.284Z,1016.71
2018-05-05T03:36:43.267Z,1016.72
2018-05-05T03:37:43.251Z,1016.72
2018-05-05T03:38:43.235Z,1016.71
2018-05-05T03:39:43.220Z,1016.72
2018-05-05T03:40:43.201Z,1016.71
2018-05-05T03:41:43.234Z,1016.73
2018-05-05T03:42:43.164Z,1016.72
2018-05-05T03:43:43.160Z,1016.71
2018-05-05T03:44:43.130Z,1016.74
2018-05-05T03:45:43.116Z,1016.74
2018-05-05T03:46:43.297Z,1016.73
2018-05-05T03:47:43.080Z,1016.76
2018-05-05T03:48:43.074Z,1016.75
2018-05-05T03:49:43.046Z,1016.75
2018-05-05T03:50:43.029Z,1016.74
2018-05-05T03:51:43.013Z,1016.76
2018-05-05T03:52:42.997Z,1016.79
2018-05-05T03:53:42.983Z,1016.79
2018-05-05T03:54:42.961Z,1016.84
2018-05-05T03:55:42.943Z,1016.8
2018-05-05T03:56:42.930Z,1016.83
2018-05-05T03:57:42.911Z,1016.81
2018-05-05T03:58:43.351Z,1016.82
2018-05-05T03:59:42.894Z,1016.82
2018-05-05T04:00:42.857Z,1016.84
2018-05-05T04:01:42.839Z,1016.84
2018-05-05T04:02:42.826Z,1016.85
2018-05-05T04:03:42.809Z,1016.84
2018-05-05T04:04:42.788Z,1016.85
2018-05-05T04:05:42.771Z,1016.85
2018-05-05T04:06:42.753Z,1016.82
2018-05-05T04:07:42.737Z,1016.89
2018-05-05T04:08:42.721Z,1016.88
2018-05-05T04:09:42.703Z,1016.87
2018-05-05T04:10:42.686Z,1016.89
2018-05-05T04:11:42.669Z,1016.88
2018-05-05T04:12:42.656Z,1016.89
2018-05-05T04:13:42.635Z,1016.91
2018-05-05T04:14:42.619Z,1016.92
2018-05-05T04:15:42.601Z,1016.92
2018-05-05T04:16:42.585Z,1016.95
2018-05-05T04:17:42.568Z,1016.96
2018-05-05T04:18:42.550Z,1016.93
2018-05-05T04:19:42.537Z,1016.93
2018-05-05T04:20:42.514Z,1016.95
2018-05-05T04:21:42.497Z,1016.96
2018-05-05T04:22:42.480Z,1016.98
2018-05-05T04:23:42.468Z,1016.98
2018-05-05T04:24:42.447Z,1016.99
2018-05-05T04:25:42.431Z,1016.95
2018-05-05T04:26:42.411Z,1016.98
2018-05-05T04:27:42.392Z,1017
2018-05-05T04:28:42.377Z,1017.03
2018-05-05T04:29:42.359Z,1017.01
2018-05-05T04:30:42.341Z,1016.99
2018-05-05T04:31:42.325Z,1017
2018-05-05T04:32:42.308Z,1016.99
2018-05-05T04:33:42.289Z,1016.96
2018-05-05T04:34:42.270Z,1016.97
2018-05-05T04:35:42.254Z,1016.92
2018-05-05T04:36:42.240Z,1016.94
2018-05-05T04:37:42.222Z,1016.89
2018-05-05T04:38:42.203Z,1016.9
2018-05-05T04:39:42.184Z,1016.89
2018-05-05T04:40:42.206Z,1016.88
2018-05-05T04:41:42.154Z,1016.92
2018-05-05T04:42:42.138Z,1016.95
2018-05-05T04:43:42.119Z,1016.96
2018-05-05T04:44:42.097Z,1016.94
2018-05-05T04:45:42.081Z,1016.96
2018-05-05T04:46:42.068Z,1017.01
2018-05-05T04:47:42.098Z,1016.99
2018-05-05T04:48:42.031Z,1016.99
2018-05-05T04:49:42.015Z,1017
2018-05-05T04:50:42.048Z,1017.02
2018-05-05T04:51:41.980Z,1017.04
2018-05-05T04:52:41.961Z,1017.03
2018-05-05T04:53:41.946Z,1017.08
2018-05-05T04:54:41.930Z,1017.08
2018-05-05T04:55:41.911Z,1017.09
2018-05-05T04:56:41.905Z,1017.1
2018-05-05T04:57:41.876Z,1017.09
2018-05-05T04:58:41.859Z,1017.11
2018-05-05T04:59:41.892Z,1017.12
2018-05-05T05:00:41.825Z,1017.09
2018-05-05T05:01:41.807Z,1017.13
2018-05-05T05:02:41.792Z,1017.11
2018-05-05T05:03:41.775Z,1017.18
2018-05-05T05:04:41.757Z,1017.16
2018-05-05T05:05:41.741Z,1017.14
2018-05-05T05:06:41.723Z,1017.18
2018-05-05T05:07:41.708Z,1017.16
2018-05-05T05:08:41.690Z,1017.14
2018-05-05T05:09:41.674Z,1017.14
2018-05-05T05:10:41.655Z,1017.17
2018-05-05T05:11:41.641Z,1017.22
2018-05-05T05:12:41.621Z,1017.2
2018-05-05T05:13:41.604Z,1017.22
2018-05-05T05:14:41.585Z,1017.2
2018-05-05T05:15:41.575Z,1017.23
2018-05-05T05:16:41.571Z,1017.22
2018-05-05T05:17:41.537Z,1017.24
2018-05-05T05:18:41.519Z,1017.24
2018-05-05T05:19:41.503Z,1017.27
2018-05-05T05:20:41.491Z,1017.28
2018-05-05T05:21:41.471Z,1017.26
2018-05-05T05:22:41.453Z,1017.29
2018-05-05T05:23:41.437Z,1017.32
2018-05-05T05:24:41.419Z,1017.31
2018-05-05T05:25:41.403Z,1017.33
2018-05-05T05:26:41.391Z,1017.28
2018-05-05T05:27:41.367Z,1017.28
2018-05-05T05:28:41.392Z,1017.29
2018-05-05T05:29:41.336Z,1017.27
2018-05-05T05:30:41.317Z,1017.27
2018-05-05T05:31:41.315Z,1017.26
2018-05-05T05:32:41.287Z,1017.23
2018-05-05T05:33:41.269Z,1017.21
2018-05-05T05:34:41.255Z,1017.26
2018-05-05T05:35:41.241Z,1017.26
2018-05-05T05:36:41.219Z,1017.22
2018-05-05T05:37:41.204Z,1017.23
2018-05-05T05:38:41.190Z,1017.17
2018-05-05T05:39:41.170Z,1017.21
2018-05-05T05:40:41.153Z,1017.22
2018-05-05T05:41:41.139Z,1017.18
2018-05-05T05:42:41.121Z,1017.19
2018-05-05T05:43:41.103Z,1017.18
2018-05-05T05:44:41.090Z,1017.2
2018-05-05T05:45:41.125Z,1017.17
2018-05-05T05:46:41.104Z,1017.16
2018-05-05T05:47:41.046Z,1017.19
2018-05-05T05:48:41.030Z,1017.2
2018-05-05T05:49:41.010Z,1017.2
2018-05-05T05:50:40.994Z,1017.17
2018-05-05T05:51:40.978Z,1017.15
2018-05-05T05:52:40.963Z,1017.18
2018-05-05T05:53:40.944Z,1017.15
2018-05-05T05:54:40.929Z,1017.16
2018-05-05T05:55:40.919Z,1017.14
2018-05-05T05:56:40.896Z,1017.14
2018-05-05T05:57:40.884Z,1017.17
2018-05-05T05:58:40.863Z,1017.17
2018-05-05T05:59:40.851Z,1017.16
2018-05-05T06:00:40.832Z,1017.13
2018-05-05T06:01:40.816Z,1017.13
2018-05-05T06:02:40.800Z,1017.14
2018-05-05T06:03:40.784Z,1017.14
2018-05-05T06:04:40.823Z,1017.21
2018-05-05T06:05:40.755Z,1017.21
2018-05-05T06:06:40.736Z,1017.21
2018-05-05T06:07:40.723Z,1017.23
2018-05-05T06:08:40.703Z,1017.2
2018-05-05T06:09:40.691Z,1017.25
2018-05-05T06:10:40.675Z,1017.26
2018-05-05T06:11:40.657Z,1017.26
2018-05-05T06:12:40.646Z,1017.28
2018-05-05T06:13:40.630Z,1017.29
2018-05-05T06:14:40.611Z,1017.28
2018-05-05T06:15:40.596Z,1017.26
2018-05-05T06:16:40.579Z,1017.21
2018-05-05T06:17:40.563Z,1017.19
2018-05-05T06:18:40.550Z,1017.13
2018-05-05T06:19:40.533Z,1017.13
2018-05-05T06:20:40.517Z,1017.12
2018-05-05T06:21:40.503Z,1017.16
2018-05-05T06:22:40.487Z,1017.11
2018-05-05T06:23:40.471Z,1017.16
2018-05-05T06:24:40.545Z,1017.1
2018-05-05T06:25:40.440Z,1017.14
2018-05-05T06:26:40.424Z,1017.13
2018-05-05T06:27:40.410Z,1017.09
2018-05-05T06:28:40.393Z,1017.11
2018-05-05T06:29:40.377Z,1017.06
2018-05-05T06:30:40.363Z,1017.03
2018-05-05T06:31:40.351Z,1017.07
2018-05-05T06:32:40.337Z,1017.05
2018-05-05T06:33:40.321Z,1017.08
2018-05-05T06:34:40.301Z,1017.09
2018-05-05T06:35:40.288Z,1017.06
2018-05-05T06:36:40.272Z,1017.13
2018-05-05T06:37:40.260Z,1017.13
2018-05-05T06:38:40.240Z,1017.17
2018-05-05T06:39:40.227Z,1017.13
2018-05-05T06:40:40.211Z,1017.16
2018-05-05T06:41:40.197Z,1017.16
2018-05-05T06:42:40.180Z,1017.13
2018-05-05T06:43:40.166Z,1017.13
2018-05-05T06:44:40.161Z,1017.07
2018-05-05T06:45:40.136Z,1017.09
2018-05-05T06:46:40.120Z,1017.03
2018-05-05T06:47:40.108Z,1017.06
2018-05-05T06:48:40.093Z,1017.03
2018-05-05T06:49:40.080Z,1017.03
2018-05-05T06:50:40.062Z,1017.04
2018-05-05T06:51:40.047Z,1017.08
2018-05-05T06:52:40.032Z,1017.02
2018-05-05T06:53:40.019Z,1017.04
2018-05-05T06:54:40.005Z,1017
2018-05-05T06:55:39.991Z,1017.04
2018-05-05T06:56:39.972Z,1017.03
2018-05-05T06:57:39.959Z,1017.04
2018-05-05T06:58:39.945Z,1017.06
2018-05-05T06:59:39.932Z,1017.06
2018-05-05T07:00:39.915Z,1017.08
2018-05-05T07:01:39.901Z,1017.08
2018-05-05T07:02:39.888Z,1017.15
2018-05-05T07:03:39.873Z,1017.12
2018-05-05T07:04:39.859Z,1017.11
2018-05-05T07:05:39.843Z,1017.14
2018-05-05T07:06:39.829Z,1017.22
2018-05-05T07:07:39.816Z,1017.22
2018-05-05T07:08:39.799Z,1017.22
2018-05-05T07:09:39.788Z,1017.28
2018-05-05T07:10:39.773Z,1017.32
2018-05-05T07:11:39.757Z,1017.33
2018-05-05T07:12:39.746Z,1017.37
2018-05-05T07:13:39.729Z,1017.4
2018-05-05T07:14:39.714Z,1017.42
2018-05-05T07:15:39.880Z,1017.44
2018-05-05T07:16:39.688Z,1017.49
2018-05-05T07:17:39.674Z,1017.49
2018-05-05T07:18:39.661Z,1017.53
2018-05-05T07:19:39.645Z,1017.55
2018-05-05T07:20:39.631Z,1017.58
2018-05-05T07:21:39.618Z,1017.57
2018-05-05T07:22:39.603Z,1017.57
2018-05-05T07:23:39.591Z,1017.56
2018-05-05T07:24:39.576Z,1017.54
2018-05-05T07:25:39.562Z,1017.61
2018-05-05T07:26:39.556Z,1017.59
2018-05-05T07:27:39.534Z,1017.6
2018-05-05T07:28:39.520Z,1017.63
2018-05-05T07:29:39.508Z,1017.65
2018-05-05T07:30:39.493Z,1017.57
2018-05-05T07:31:39.480Z,1017.59
2018-05-05T07:32:39.466Z,1017.56
2018-05-05T07:33:39.452Z,1017.55
2018-05-05T07:34:39.442Z,1017.57
2018-05-05T07:35:39.427Z,1017.51
2018-05-05T07:36:39.413Z,1017.52
2018-05-05T07:37:39.399Z,1017.53
2018-05-05T07:38:39.385Z,1017.5
2018-05-05T07:39:39.377Z,1017.53
2018-05-05T07:40:39.359Z,1017.54
2018-05-05T07:41:39.344Z,1017.51
2018-05-05T07:42:39.332Z,1017.5
2018-05-05T07:43:39.322Z,1017.54
2018-05-05T07:44:39.306Z,1017.51
2018-05-05T07:45:39.292Z,1017.49
2018-05-05T07:46:39.282Z,1017.54
2018-05-05T07:47:39.270Z,1017.55
2018-05-05T07:48:39.256Z,1017.53
2018-05-05T07:49:39.242Z,1017.57
2018-05-05T07:50:39.230Z,1017.53
2018-05-05T07:51:39.216Z,1017.56
2018-05-05T07:52:39.205Z,1017.58
2018-05-05T07:53:39.195Z,1017.6
2018-05-05T07:54:39.180Z,1017.61
2018-05-05T07:55:39.167Z,1017.62
2018-05-05T07:56:39.153Z,1017.62
2018-05-05T07:57:39.141Z,1017.63
2018-05-05T07:58:39.128Z,1017.61
2018-05-05T07:59:39.320Z,1017.67
2018-05-05T08:00:39.105Z,1017.67
2018-05-05T08:01:39.092Z,1017.69
2018-05-05T08:02:39.082Z,1017.72
2018-05-05T08:03:39.069Z,1017.64
2018-05-05T08:04:39.057Z,1017.62
2018-05-05T08:05:39.043Z,1017.62
2018-05-05T08:06:39.032Z,1017.73
2018-05-05T08:07:39.020Z,1017.95
2018-05-05T08:08:39.013Z,1018.06
2018-05-05T08:09:38.998Z,1018.15
2018-05-05T08:10:38.985Z,1018.08
2018-05-05T08:11:38.980Z,1018.1
2018-05-05T08:12:38.978Z,1018.11
2018-05-05T08:13:38.954Z,1018.11
2018-05-05T08:14:38.946Z,1018.12
2018-05-05T08:15:38.938Z,1018.14
2018-05-05T08:16:38.930Z,1018.16
2018-05-05T08:17:38.922Z,1018.14
2018-05-05T08:18:38.927Z,1018.18
2018-05-05T08:19:38.909Z,1018.19
2018-05-05T08:20:38.903Z,1018.17
2018-05-05T08:21:38.897Z,1018.14
2018-05-05T08:22:38.968Z,1018.18
2018-05-05T08:23:38.888Z,1018.19
2018-05-05T08:24:38.883Z,1018.19
2018-05-05T08:25:38.879Z,1018.06
2018-05-05T08:26:38.875Z,1018.2
2018-05-05T08:27:38.870Z,1018.09
2018-05-05T08:28:38.866Z,1018.09
2018-05-05T08:29:38.864Z,1017.97
2018-05-05T08:30:38.860Z,1018.11
2018-05-05T08:31:38.855Z,1018.04
2018-05-05T08:32:38.851Z,1018.02
2018-05-05T08:33:38.850Z,1017.93
2018-05-05T08:34:38.847Z,1018.08
2018-05-05T08:35:38.843Z,1017.99
2018-05-05T08:36:38.844Z,1018
2018-05-05T08:37:38.889Z,1017.94
2018-05-05T08:38:38.831Z,1017.97
2018-05-05T08:39:38.825Z,1017.98
2018-05-05T08:40:38.825Z,1017.95
2018-05-05T08:41:38.818Z,1017.94
2018-05-05T08:42:38.813Z,1018.03
2018-05-05T08:43:38.811Z,1017.96
2018-05-05T08:44:38.827Z,1017.92
2018-05-05T08:45:38.799Z,1017.98
2018-05-05T08:46:38.792Z,1017.93
2018-05-05T08:47:38.789Z,1017.83
2018-05-05T08:48:38.783Z,1017.86
2018-05-05T08:49:38.847Z,1017.85
2018-05-05T08:50:38.772Z,1018.32
2018-05-05T08:51:38.766Z,1017.91
2018-05-05T08:52:38.760Z,1017.93
2018-05-05T08:53:38.754Z,1018.01
2018-05-05T08:54:38.746Z,1017.94
2018-05-05T08:55:38.743Z,1017.95
2018-05-05T08:56:38.741Z,1017.94
2018-05-05T08:57:38.732Z,1017.95
2018-05-05T08:58:38.725Z,1017.97
2018-05-05T08:59:38.722Z,1017.96
2018-05-05T09:00:38.739Z,1017.97
2018-05-05T09:01:38.703Z,1017.92
2018-05-05T09:02:38.696Z,1017.9
2018-05-05T09:03:38.689Z,1017.83
2018-05-05T09:04:38.682Z,1017.86
2018-05-05T09:05:38.673Z,1017.89
2018-05-05T09:06:38.669Z,1017.85
2018-05-05T09:07:38.655Z,1017.88
2018-05-05T09:08:38.652Z,1017.94
2018-05-05T09:09:38.641Z,1017.85
2018-05-05T09:10:38.634Z,1017.87
2018-05-05T09:11:38.628Z,1017.85
2018-05-05T09:12:38.618Z,1017.83
2018-05-05T09:13:38.617Z,1017.82
2018-05-05T09:14:38.601Z,1017.8
2018-05-05T09:15:38.602Z,1017.75
2018-05-05T09:16:38.585Z,1017.8
2018-05-05T09:17:38.577Z,1017.78
2018-05-05T09:18:38.567Z,1017.8
2018-05-05T09:19:38.558Z,1017.86
2018-05-05T09:20:38.553Z,1017.85
2018-05-05T09:21:38.542Z,1017.87
2018-05-05T09:22:38.536Z,1017.86
2018-05-05T09:23:38.577Z,1017.93
2018-05-05T09:24:38.515Z,1017.82
2018-05-05T09:25:38.511Z,1017.78
2018-05-05T09:26:38.511Z,1017.79
2018-05-05T09:27:38.491Z,1017.74
2018-05-05T09:28:38.483Z,1017.77
2018-05-05T09:29:38.475Z,1017.77
2018-05-05T09:30:38.463Z,1017.75
2018-05-05T09:31:38.456Z,1017.72
2018-05-05T09:32:38.449Z,1017.7
2018-05-05T09:33:38.442Z,1017.72
2018-05-05T09:34:38.427Z,1017.71
2018-05-05T09:35:38.426Z,1017.75
2018-05-05T09:36:38.410Z,1017.66
2018-05-05T09:37:38.401Z,1017.71
2018-05-05T09:38:38.392Z,1017.69
2018-05-05T09:39:38.384Z,1017.68
2018-05-05T09:40:38.376Z,1017.67
2018-05-05T09:41:38.366Z,1017.63
2018-05-05T09:42:38.368Z,1017.66
2018-05-05T09:43:38.346Z,1017.67
2018-05-05T09:44:38.337Z,1017.65
2018-05-05T09:45:38.328Z,1017.67
2018-05-05T09:46:38.317Z,1017.65
2018-05-05T09:47:38.309Z,1017.7
2018-05-05T09:48:38.301Z,1017.69
2018-05-05T09:49:38.291Z,1017.62
2018-05-05T09:50:38.284Z,1017.66
2018-05-05T09:51:38.272Z,1017.65
2018-05-05T09:52:38.272Z,1017.63
2018-05-05T09:53:38.253Z,1017.65
2018-05-05T09:54:38.245Z,1017.63
2018-05-05T09:55:38.235Z,1017.62
2018-05-05T09:56:38.226Z,1017.61
2018-05-05T09:57:38.224Z,1017.62
2018-05-05T09:58:38.211Z,1017.62
2018-05-05T09:59:38.400Z,1017.58
2018-05-05T10:00:38.191Z,1017.61
2018-05-05T10:01:38.185Z,1017.58
2018-05-05T10:02:38.170Z,1017.56
2018-05-05T10:03:38.163Z,1017.52
2018-05-05T10:04:38.154Z,1017.52
2018-05-05T10:05:38.144Z,1017.47
2018-05-05T10:06:38.136Z,1017.52
2018-05-05T10:07:38.127Z,1017.57
2018-05-05T10:08:38.118Z,1017.61
2018-05-05T10:09:38.108Z,1017.63
2018-05-05T10:10:38.103Z,1017.66
2018-05-05T10:11:38.091Z,1017.63
2018-05-05T10:12:38.082Z,1017.63
2018-05-05T10:13:38.074Z,1017.64
2018-05-05T10:14:38.064Z,1017.63
2018-05-05T10:15:38.055Z,1017.61
2018-05-05T10:16:38.051Z,1017.58
2018-05-05T10:17:38.039Z,1017.55
2018-05-05T10:18:38.029Z,1017.59
2018-05-05T10:19:38.022Z,1017.69
2018-05-05T10:20:38.012Z,1017.75
2018-05-05T10:21:38.005Z,1017.77
2018-05-05T10:22:38.001Z,1017.66
2018-05-05T10:23:37.987Z,1017.65
2018-05-05T10:24:37.978Z,1017.72
2018-05-05T10:25:37.973Z,1017.65
2018-05-05T10:26:37.967Z,1017.83
2018-05-05T10:27:37.962Z,1017.87
2018-05-05T10:28:37.953Z,1017.9
2018-05-05T10:29:37.945Z,1017.97
2018-05-05T10:30:37.942Z,1017.94
2018-05-05T10:31:37.942Z,1017.94
2018-05-05T10:32:37.933Z,1017.86
2018-05-05T10:33:37.928Z,1017.88
2018-05-05T10:34:37.925Z,1017.86
2018-05-05T10:35:37.920Z,1017.85
2018-05-05T10:36:37.918Z,1017.84
2018-05-05T10:37:37.915Z,1017.86
2018-05-05T10:38:37.915Z,1017.8
2018-05-05T10:39:37.912Z,1017.67
2018-05-05T10:40:37.958Z,1017.65
2018-05-05T10:41:37.915Z,1017.75
2018-05-05T10:42:37.913Z,1017.69
2018-05-05T10:43:37.910Z,1017.64
2018-05-05T10:44:37.986Z,1017.63
2018-05-05T10:45:37.912Z,1017.59
2018-05-05T10:46:37.912Z,1017.58
2018-05-05T10:47:37.915Z,1017.59
2018-05-05T10:48:37.917Z,1017.61
2018-05-05T10:49:37.923Z,1017.55
2018-05-05T10:50:37.922Z,1017.55
2018-05-05T10:51:37.924Z,1017.52
2018-05-05T10:52:37.927Z,1017.57
2018-05-05T10:53:37.937Z,1017.62
2018-05-05T10:54:37.933Z,1017.63
2018-05-05T10:55:37.937Z,1017.66
2018-05-05T10:56:37.940Z,1017.69
2018-05-05T10:57:37.947Z,1017.59
2018-05-05T10:58:37.948Z,1017.65
2018-05-05T10:59:37.955Z,1017.67
2018-05-05T11:00:37.959Z,1017.64
2018-05-05T11:01:37.961Z,1017.64
2018-05-05T11:02:37.965Z,1017.6
2018-05-05T11:03:37.974Z,1017.58
2018-05-05T11:04:37.982Z,1017.58
2018-05-05T11:05:37.981Z,1017.64
2018-05-05T11:06:37.989Z,1017.56
2018-05-05T11:07:37.996Z,1017.52
2018-05-05T11:08:37.996Z,1017.49
2018-05-05T11:09:38.002Z,1017.52
2018-05-05T11:10:38.007Z,1017.54
2018-05-05T11:11:38.016Z,1017.5
2018-05-05T11:12:38.022Z,1017.5
2018-05-05T11:13:38.025Z,1017.52
2018-05-05T11:14:38.032Z,1017.46
2018-05-05T11:15:38.047Z,1017.41
2018-05-05T11:16:38.047Z,1017.49
2018-05-05T11:17:38.045Z,1017.52
2018-05-05T11:18:38.063Z,1017.51
2018-05-05T11:19:38.061Z,1017.49
2018-05-05T11:20:38.065Z,1017.52
2018-05-05T11:21:38.072Z,1017.53
2018-05-05T11:22:38.083Z,1017.46
2018-05-05T11:23:38.081Z,1017.5
2018-05-05T11:24:38.088Z,1017.55
2018-05-05T11:25:38.094Z,1017.48
2018-05-05T11:26:38.103Z,1017.49
2018-05-05T11:27:38.105Z,1017.55
2018-05-05T11:28:38.117Z,1017.49
2018-05-05T11:29:38.123Z,1017.53
2018-05-05T11:30:38.127Z,1017.52
2018-05-05T11:31:38.135Z,1017.48
2018-05-05T11:32:38.146Z,1017.44
2018-05-05T11:33:38.154Z,1017.52
2018-05-05T11:34:38.153Z,1017.54
2018-05-05T11:35:38.159Z,1017.48
2018-05-05T11:36:38.167Z,1017.49
2018-05-05T11:37:38.177Z,1017.47
2018-05-05T11:38:38.188Z,1017.51
2018-05-05T11:39:38.228Z,1017.51
2018-05-05T11:40:38.192Z,1017.5
2018-05-05T11:41:38.221Z,1017.48
2018-05-05T11:42:38.210Z,1017.42
2018-05-05T11:43:38.215Z,1017.42
2018-05-05T11:44:38.223Z,1017.41
2018-05-05T11:45:38.232Z,1017.47
2018-05-05T11:46:38.238Z,1017.42
2018-05-05T11:47:38.239Z,1017.41
2018-05-05T11:48:38.255Z,1017.45
2018-05-05T11:49:38.262Z,1017.35
2018-05-05T11:50:38.359Z,1017.38
2018-05-05T11:51:38.267Z,1017.34
2018-05-05T11:52:38.278Z,1017.4
2018-05-05T11:53:38.281Z,1017.36
2018-05-05T11:54:38.289Z,1017.36
2018-05-05T11:55:38.298Z,1017.35
2018-05-05T11:56:38.309Z,1017.29
2018-05-05T11:57:38.316Z,1017.33
2018-05-05T11:58:38.320Z,1017.33
2018-05-05T11:59:38.525Z,1017.35
2018-05-05T12:00:38.351Z,1017.35
2018-05-05T12:01:38.363Z,1017.36
2018-05-05T12:02:38.492Z,1017.34
2018-05-05T12:03:38.366Z,1017.4
2018-05-05T12:04:38.380Z,1017.37
2018-05-05T12:05:38.403Z,1017.33
2018-05-05T12:06:38.384Z,1017.32
2018-05-05T12:07:38.383Z,1017.27